sensor_id;sensor_type;location;lat;lon;timestamp;temperature;humidity
38090;DHT22;23904;52.322;10.232;2023-12-20T00:01:06;7.10;99.90
38090;DHT22;23904;52.322;10.232;2023-12-20T00:03:32;7.10;99.90
38090;DHT22;23904;52.322;10.232;2023-12-20T00:05:57;7.10;99.90
38090;DHT22;23904;52.322;10.232;2023-12-20T00:08:23;7.10;99.90
38090;DHT22;23904;52.322;10.232;2023-12-20T00:10:49;7.20;99.90
38090;DHT22;23904;52.322;10.232;2023-12-20T00:13:14;7.10;99.90
38090;DHT22;23904;52.322;10.232;2023-12-20T00:15:40;7.10;99.90
38090;DHT22;23904;52.322;10.232;2023-12-20T00:18:05;7.10;99.90
38090;DHT22;23904;52.322;10.232;2023-12-20T00:20:31;7.20;99.90
38090;DHT22;23904;52.322;10.232;2023-12-20T00:22:57;7.10;99.90
38090;DHT22;23904;52.322;10.232;2023-12-20T00:25:24;7.10;99.90
38090;DHT22;23904;52.322;10.232;2023-12-20T00:27:50;7.10;99.90
38090;DHT22;23904;52.322;10.232;2023-12-20T00:30:16;7.10;99.90
38090;DHT22;23904;52.322;10.232;2023-12-20T00:32:41;7.00;99.90
38090;DHT22;23904;52.322;10.232;2023-12-20T00:35:12;7.00;99.90
38090;DHT22;23904;52.322;10.232;2023-12-20T00:37:44;7.00;99.90
38090;DHT22;23904;52.322;10.232;2023-12-20T00:40:10;6.90;99.90
38090;DHT22;23904;52.322;10.232;2023-12-20T00:42:36;6.90;99.90
38090;DHT22;23904;52.322;10.232;2023-12-20T00:45:02;6.90;99.90
38090;DHT22;23904;52.322;10.232;2023-12-20T00:47:30;6.90;99.90
38090;DHT22;23904;52.322;10.232;2023-12-20T00:49:58;6.90;99.90
38090;DHT22;23904;52.322;10.232;2023-12-20T00:52:25;6.90;99.90
38090;DHT22;23904;52.322;10.232;2023-12-20T00:54:51;6.80;99.90
38090;DHT22;23904;52.322;10.232;2023-12-20T00:57:17;6.80;99.90
38090;DHT22;23904;52.322;10.232;2023-12-20T00:59:42;6.80;99.90
38090;DHT22;23904;52.322;10.232;2023-12-20T01:02:08;6.70;99.90
38090;DHT22;23904;52.322;10.232;2023-12-20T01:04:35;6.70;99.90
38090;DHT22;23904;52.322;10.232;2023-12-20T01:07:00;6.60;99.90
38090;DHT22;23904;52.322;10.232;2023-12-20T01:09:26;6.50;99.90
38090;DHT22;23904;52.322;10.232;2023-12-20T01:11:52;6.50;99.90
38090;DHT22;23904;52.322;10.232;2023-12-20T01:14:18;6.50;99.90
38090;DHT22;23904;52.322;10.232;2023-12-20T01:16:44;6.50;99.90
38090;DHT22;23904;52.322;10.232;2023-12-20T01:19:10;6.40;99.90
38090;DHT22;23904;52.322;10.232;2023-12-20T01:21:35;6.40;99.90
38090;DHT22;23904;52.322;10.232;2023-12-20T01:24:01;6.30;99.90
38090;DHT22;23904;52.322;10.232;2023-12-20T01:26:26;6.30;99.90
38090;DHT22;23904;52.322;10.232;2023-12-20T01:28:52;6.30;99.90
38090;DHT22;23904;52.322;10.232;2023-12-20T01:31:18;6.30;99.90
38090;DHT22;23904;52.322;10.232;2023-12-20T01:33:44;6.30;99.90
38090;DHT22;23904;52.322;10.232;2023-12-20T01:36:10;6.30;99.90
38090;DHT22;23904;52.322;10.232;2023-12-20T01:38:36;6.30;99.90
38090;DHT22;23904;52.322;10.232;2023-12-20T01:41:02;6.30;99.90
38090;DHT22;23904;52.322;10.232;2023-12-20T01:43:29;6.30;99.90
38090;DHT22;23904;52.322;10.232;2023-12-20T01:45:56;6.30;99.90
38090;DHT22;23904;52.322;10.232;2023-12-20T01:48:23;6.20;99.90
38090;DHT22;23904;52.322;10.232;2023-12-20T01:50:50;6.20;99.90
38090;DHT22;23904;52.322;10.232;2023-12-20T01:53:17;6.20;99.90
38090;DHT22;23904;52.322;10.232;2023-12-20T01:55:44;6.20;99.90
38090;DHT22;23904;52.322;10.232;2023-12-20T01:58:11;6.30;99.90
38090;DHT22;23904;52.322;10.232;2023-12-20T02:00:38;6.20;99.90
38090;DHT22;23904;52.322;10.232;2023-12-20T02:03:07;6.20;99.90
38090;DHT22;23904;52.322;10.232;2023-12-20T02:05:34;6.30;99.90
38090;DHT22;23904;52.322;10.232;2023-12-20T02:08:01;6.20;99.90
38090;DHT22;23904;52.322;10.232;2023-12-20T02:10:30;6.20;99.90
38090;DHT22;23904;52.322;10.232;2023-12-20T02:12:55;6.20;99.90
38090;DHT22;23904;52.322;10.232;2023-12-20T02:15:21;6.20;99.90
38090;DHT22;23904;52.322;10.232;2023-12-20T02:17:47;6.20;99.90
38090;DHT22;23904;52.322;10.232;2023-12-20T02:20:13;6.20;99.90
38090;DHT22;23904;52.322;10.232;2023-12-20T02:22:39;6.20;99.90
38090;DHT22;23904;52.322;10.232;2023-12-20T02:25:05;6.20;99.90
38090;DHT22;23904;52.322;10.232;2023-12-20T02:27:31;6.20;99.90
38090;DHT22;23904;52.322;10.232;2023-12-20T02:29:57;6.10;99.90
38090;DHT22;23904;52.322;10.232;2023-12-20T02:32:24;6.10;99.90
38090;DHT22;23904;52.322;10.232;2023-12-20T02:34:54;6.00;99.90
38090;DHT22;23904;52.322;10.232;2023-12-20T02:37:20;6.00;99.90
38090;DHT22;23904;52.322;10.232;2023-12-20T02:39:45;6.00;99.90
38090;DHT22;23904;52.322;10.232;2023-12-20T02:42:11;6.00;99.90
38090;DHT22;23904;52.322;10.232;2023-12-20T02:44:36;6.00;99.90
38090;DHT22;23904;52.322;10.232;2023-12-20T02:47:03;6.00;99.90
38090;DHT22;23904;52.322;10.232;2023-12-20T02:49:29;6.00;99.90
38090;DHT22;23904;52.322;10.232;2023-12-20T02:51:54;6.00;99.90
38090;DHT22;23904;52.322;10.232;2023-12-20T02:54:20;5.90;99.90
38090;DHT22;23904;52.322;10.232;2023-12-20T02:56:46;5.80;99.90
38090;DHT22;23904;52.322;10.232;2023-12-20T02:59:12;5.80;99.90
38090;DHT22;23904;52.322;10.232;2023-12-20T03:01:42;5.70;99.90
38090;DHT22;23904;52.322;10.232;2023-12-20T03:04:14;5.70;99.90
38090;DHT22;23904;52.322;10.232;2023-12-20T03:06:39;5.70;99.90
38090;DHT22;23904;52.322;10.232;2023-12-20T03:09:05;5.70;99.90
38090;DHT22;23904;52.322;10.232;2023-12-20T03:11:31;5.70;99.90
38090;DHT22;23904;52.322;10.232;2023-12-20T03:13:57;5.70;99.90
38090;DHT22;23904;52.322;10.232;2023-12-20T03:16:22;5.70;99.90
38090;DHT22;23904;52.322;10.232;2023-12-20T03:18:48;5.70;99.90
38090;DHT22;23904;52.322;10.232;2023-12-20T03:21:15;5.60;99.90
38090;DHT22;23904;52.322;10.232;2023-12-20T03:23:41;5.60;99.90
38090;DHT22;23904;52.322;10.232;2023-12-20T03:26:07;5.50;99.90
38090;DHT22;23904;52.322;10.232;2023-12-20T03:28:34;5.50;99.90
38090;DHT22;23904;52.322;10.232;2023-12-20T03:31:00;5.50;99.90
38090;DHT22;23904;52.322;10.232;2023-12-20T03:33:25;5.40;99.90
38090;DHT22;23904;52.322;10.232;2023-12-20T03:35:51;5.40;99.90
38090;DHT22;23904;52.322;10.232;2023-12-20T03:38:17;5.40;99.90
38090;DHT22;23904;52.322;10.232;2023-12-20T03:40:42;5.30;99.90
38090;DHT22;23904;52.322;10.232;2023-12-20T03:43:08;5.30;99.90
38090;DHT22;23904;52.322;10.232;2023-12-20T03:45:33;5.30;99.90
38090;DHT22;23904;52.322;10.232;2023-12-20T03:47:59;5.30;99.90
38090;DHT22;23904;52.322;10.232;2023-12-20T03:50:26;5.30;99.90
38090;DHT22;23904;52.322;10.232;2023-12-20T03:52:51;5.20;99.90
38090;DHT22;23904;52.322;10.232;2023-12-20T03:55:18;5.20;99.90
38090;DHT22;23904;52.322;10.232;2023-12-20T03:57:43;5.20;99.90
38090;DHT22;23904;52.322;10.232;2023-12-20T04:00:09;5.20;99.90
38090;DHT22;23904;52.322;10.232;2023-12-20T04:02:37;5.20;99.90
38090;DHT22;23904;52.322;10.232;2023-12-20T04:05:06;5.10;99.90
38090;DHT22;23904;52.322;10.232;2023-12-20T04:07:32;5.10;99.90
38090;DHT22;23904;52.322;10.232;2023-12-20T04:09:58;5.10;99.90
38090;DHT22;23904;52.322;10.232;2023-12-20T04:12:24;5.00;99.90
38090;DHT22;23904;52.322;10.232;2023-12-20T04:14:49;5.10;99.90
38090;DHT22;23904;52.322;10.232;2023-12-20T04:17:16;5.10;99.90
38090;DHT22;23904;52.322;10.232;2023-12-20T04:19:42;5.10;99.90
38090;DHT22;23904;52.322;10.232;2023-12-20T04:22:08;5.10;99.90
38090;DHT22;23904;52.322;10.232;2023-12-20T04:24:34;5.00;99.90
38090;DHT22;23904;52.322;10.232;2023-12-20T04:26:59;5.00;99.90
38090;DHT22;23904;52.322;10.232;2023-12-20T04:29:25;5.10;99.90
38090;DHT22;23904;52.322;10.232;2023-12-20T04:31:51;5.10;99.90
38090;DHT22;23904;52.322;10.232;2023-12-20T04:34:17;5.10;99.90
38090;DHT22;23904;52.322;10.232;2023-12-20T04:36:43;5.10;99.90
38090;DHT22;23904;52.322;10.232;2023-12-20T04:39:08;5.20;99.90
38090;DHT22;23904;52.322;10.232;2023-12-20T04:41:34;5.20;99.90
38090;DHT22;23904;52.322;10.232;2023-12-20T04:44:00;5.30;99.90
38090;DHT22;23904;52.322;10.232;2023-12-20T04:46:26;5.30;99.90
38090;DHT22;23904;52.322;10.232;2023-12-20T04:48:51;5.30;99.90
38090;DHT22;23904;52.322;10.232;2023-12-20T04:51:17;5.40;99.90
38090;DHT22;23904;52.322;10.232;2023-12-20T04:53:43;5.40;99.90
38090;DHT22;23904;52.322;10.232;2023-12-20T04:56:08;5.40;99.90
38090;DHT22;23904;52.322;10.232;2023-12-20T04:58:34;5.40;99.90
38090;DHT22;23904;52.322;10.232;2023-12-20T05:00:59;5.50;99.90
38090;DHT22;23904;52.322;10.232;2023-12-20T05:03:25;5.50;99.90
38090;DHT22;23904;52.322;10.232;2023-12-20T05:05:50;5.60;99.90
38090;DHT22;23904;52.322;10.232;2023-12-20T05:08:16;5.60;99.90
38090;DHT22;23904;52.322;10.232;2023-12-20T05:10:41;5.70;99.90
38090;DHT22;23904;52.322;10.232;2023-12-20T05:13:07;5.70;99.90
38090;DHT22;23904;52.322;10.232;2023-12-20T05:15:33;5.70;99.90
38090;DHT22;23904;52.322;10.232;2023-12-20T05:17:59;5.70;99.90
38090;DHT22;23904;52.322;10.232;2023-12-20T05:20:24;5.80;99.90
38090;DHT22;23904;52.322;10.232;2023-12-20T05:22:50;5.80;99.90
38090;DHT22;23904;52.322;10.232;2023-12-20T05:25:15;5.80;99.90
38090;DHT22;23904;52.322;10.232;2023-12-20T05:27:41;5.80;99.90
38090;DHT22;23904;52.322;10.232;2023-12-20T05:30:07;5.80;99.90
38090;DHT22;23904;52.322;10.232;2023-12-20T05:32:33;5.90;99.90
38090;DHT22;23904;52.322;10.232;2023-12-20T05:34:58;5.80;99.90
38090;DHT22;23904;52.322;10.232;2023-12-20T05:37:24;5.80;99.90
38090;DHT22;23904;52.322;10.232;2023-12-20T05:39:49;5.80;99.90
38090;DHT22;23904;52.322;10.232;2023-12-20T05:42:15;5.80;99.90
38090;DHT22;23904;52.322;10.232;2023-12-20T05:44:40;5.80;99.90
38090;DHT22;23904;52.322;10.232;2023-12-20T05:47:06;5.80;99.90
38090;DHT22;23904;52.322;10.232;2023-12-20T05:49:31;5.90;99.90
38090;DHT22;23904;52.322;10.232;2023-12-20T05:51:57;5.90;99.90
38090;DHT22;23904;52.322;10.232;2023-12-20T05:54:22;5.90;99.90
38090;DHT22;23904;52.322;10.232;2023-12-20T05:56:48;5.90;99.90
38090;DHT22;23904;52.322;10.232;2023-12-20T05:59:14;5.90;99.90
38090;DHT22;23904;52.322;10.232;2023-12-20T06:01:39;5.90;99.90
38090;DHT22;23904;52.322;10.232;2023-12-20T06:04:05;5.90;99.90
38090;DHT22;23904;52.322;10.232;2023-12-20T06:06:33;6.00;99.90
38090;DHT22;23904;52.322;10.232;2023-12-20T06:08:59;6.00;99.90
38090;DHT22;23904;52.322;10.232;2023-12-20T06:11:25;6.00;99.90
38090;DHT22;23904;52.322;10.232;2023-12-20T06:13:51;5.90;99.90
38090;DHT22;23904;52.322;10.232;2023-12-20T06:16:18;6.00;99.90
38090;DHT22;23904;52.322;10.232;2023-12-20T06:18:44;6.00;99.90
38090;DHT22;23904;52.322;10.232;2023-12-20T06:21:09;6.00;99.90
38090;DHT22;23904;52.322;10.232;2023-12-20T06:23:38;6.00;99.90
38090;DHT22;23904;52.322;10.232;2023-12-20T06:26:05;6.00;99.90
38090;DHT22;23904;52.322;10.232;2023-12-20T06:28:30;6.00;99.90
38090;DHT22;23904;52.322;10.232;2023-12-20T06:30:56;6.00;99.90
38090;DHT22;23904;52.322;10.232;2023-12-20T06:33:22;6.00;99.90
38090;DHT22;23904;52.322;10.232;2023-12-20T06:35:49;6.00;99.90
38090;DHT22;23904;52.322;10.232;2023-12-20T06:38:14;6.10;99.90
38090;DHT22;23904;52.322;10.232;2023-12-20T06:40:40;6.10;99.90
38090;DHT22;23904;52.322;10.232;2023-12-20T06:43:07;6.00;99.90
38090;DHT22;23904;52.322;10.232;2023-12-20T06:45:33;6.00;99.90
38090;DHT22;23904;52.322;10.232;2023-12-20T06:47:58;6.00;99.90
38090;DHT22;23904;52.322;10.232;2023-12-20T06:50:24;6.00;99.90
38090;DHT22;23904;52.322;10.232;2023-12-20T06:52:49;6.00;99.90
38090;DHT22;23904;52.322;10.232;2023-12-20T06:55:15;6.10;99.90
38090;DHT22;23904;52.322;10.232;2023-12-20T06:57:42;6.00;99.90
38090;DHT22;23904;52.322;10.232;2023-12-20T07:00:08;6.10;99.90
38090;DHT22;23904;52.322;10.232;2023-12-20T07:02:38;6.10;99.90
38090;DHT22;23904;52.322;10.232;2023-12-20T07:05:03;6.20;99.90
38090;DHT22;23904;52.322;10.232;2023-12-20T07:07:29;6.20;99.90
38090;DHT22;23904;52.322;10.232;2023-12-20T07:09:55;6.10;99.90
38090;DHT22;23904;52.322;10.232;2023-12-20T07:12:21;6.10;99.90
38090;DHT22;23904;52.322;10.232;2023-12-20T07:14:46;6.10;99.90
38090;DHT22;23904;52.322;10.232;2023-12-20T07:17:12;6.10;99.90
38090;DHT22;23904;52.322;10.232;2023-12-20T07:19:40;6.10;99.90
38090;DHT22;23904;52.322;10.232;2023-12-20T07:22:06;6.10;99.90
38090;DHT22;23904;52.322;10.232;2023-12-20T07:24:32;6.10;99.90
38090;DHT22;23904;52.322;10.232;2023-12-20T07:26:59;6.10;99.90
38090;DHT22;23904;52.322;10.232;2023-12-20T07:29:25;6.00;99.90
38090;DHT22;23904;52.322;10.232;2023-12-20T07:31:52;6.00;99.90
38090;DHT22;23904;52.322;10.232;2023-12-20T07:34:19;5.90;99.90
38090;DHT22;23904;52.322;10.232;2023-12-20T07:36:45;5.90;99.90
38090;DHT22;23904;52.322;10.232;2023-12-20T07:39:11;5.90;99.90
38090;DHT22;23904;52.322;10.232;2023-12-20T07:41:36;5.90;99.90
38090;DHT22;23904;52.322;10.232;2023-12-20T07:44:04;5.90;99.90
38090;DHT22;23904;52.322;10.232;2023-12-20T07:46:30;5.90;99.90
38090;DHT22;23904;52.322;10.232;2023-12-20T07:48:56;5.80;99.90
38090;DHT22;23904;52.322;10.232;2023-12-20T07:51:21;5.80;99.90
38090;DHT22;23904;52.322;10.232;2023-12-20T07:53:47;5.80;99.90
38090;DHT22;23904;52.322;10.232;2023-12-20T07:56:17;5.70;99.90
38090;DHT22;23904;52.322;10.232;2023-12-20T07:58:43;5.80;99.90
38090;DHT22;23904;52.322;10.232;2023-12-20T08:01:11;5.80;99.90
38090;DHT22;23904;52.322;10.232;2023-12-20T08:03:37;5.90;99.90
38090;DHT22;23904;52.322;10.232;2023-12-20T08:06:03;5.90;99.90
38090;DHT22;23904;52.322;10.232;2023-12-20T08:08:29;6.00;99.90
38090;DHT22;23904;52.322;10.232;2023-12-20T08:10:54;6.00;99.90
38090;DHT22;23904;52.322;10.232;2023-12-20T08:13:20;6.00;99.90
38090;DHT22;23904;52.322;10.232;2023-12-20T08:15:50;6.10;99.90
38090;DHT22;23904;52.322;10.232;2023-12-20T08:18:15;6.10;99.90
38090;DHT22;23904;52.322;10.232;2023-12-20T08:20:41;6.10;99.90
38090;DHT22;23904;52.322;10.232;2023-12-20T08:23:06;6.10;99.90
38090;DHT22;23904;52.322;10.232;2023-12-20T08:25:32;6.10;99.90
38090;DHT22;23904;52.322;10.232;2023-12-20T08:27:57;6.10;99.90
38090;DHT22;23904;52.322;10.232;2023-12-20T08:30:23;6.10;99.90
38090;DHT22;23904;52.322;10.232;2023-12-20T08:32:48;6.10;99.90
38090;DHT22;23904;52.322;10.232;2023-12-20T08:35:14;6.20;99.90
38090;DHT22;23904;52.322;10.232;2023-12-20T08:37:40;6.10;99.90
38090;DHT22;23904;52.322;10.232;2023-12-20T08:40:06;6.20;99.90
38090;DHT22;23904;52.322;10.232;2023-12-20T08:42:32;6.10;99.90
38090;DHT22;23904;52.322;10.232;2023-12-20T08:44:58;6.20;99.90
38090;DHT22;23904;52.322;10.232;2023-12-20T08:47:24;6.20;99.90
38090;DHT22;23904;52.322;10.232;2023-12-20T08:49:50;6.30;99.90
38090;DHT22;23904;52.322;10.232;2023-12-20T08:52:16;6.30;99.90
38090;DHT22;23904;52.322;10.232;2023-12-20T08:54:41;6.30;99.90
38090;DHT22;23904;52.322;10.232;2023-12-20T08:57:07;6.40;99.90
38090;DHT22;23904;52.322;10.232;2023-12-20T08:59:33;6.50;99.90
38090;DHT22;23904;52.322;10.232;2023-12-20T09:01:58;6.50;99.90
38090;DHT22;23904;52.322;10.232;2023-12-20T09:04:24;6.70;99.90
38090;DHT22;23904;52.322;10.232;2023-12-20T09:06:50;6.70;99.90
38090;DHT22;23904;52.322;10.232;2023-12-20T09:09:16;6.70;99.90
38090;DHT22;23904;52.322;10.232;2023-12-20T09:11:41;6.70;99.90
38090;DHT22;23904;52.322;10.232;2023-12-20T09:14:07;6.70;99.90
38090;DHT22;23904;52.322;10.232;2023-12-20T09:16:33;6.70;99.90
38090;DHT22;23904;52.322;10.232;2023-12-20T09:18:59;6.70;99.90
38090;DHT22;23904;52.322;10.232;2023-12-20T09:21:24;6.70;99.90
38090;DHT22;23904;52.322;10.232;2023-12-20T09:23:50;6.70;99.90
38090;DHT22;23904;52.322;10.232;2023-12-20T09:26:15;6.70;99.90
38090;DHT22;23904;52.322;10.232;2023-12-20T09:28:41;6.60;99.90
38090;DHT22;23904;52.322;10.232;2023-12-20T09:31:06;6.70;99.90
38090;DHT22;23904;52.322;10.232;2023-12-20T09:33:33;6.70;99.90
38090;DHT22;23904;52.322;10.232;2023-12-20T09:35:59;6.80;99.90
38090;DHT22;23904;52.322;10.232;2023-12-20T09:38:25;6.80;99.90
38090;DHT22;23904;52.322;10.232;2023-12-20T09:40:50;6.70;99.90
38090;DHT22;23904;52.322;10.232;2023-12-20T09:43:18;6.70;99.90
38090;DHT22;23904;52.322;10.232;2023-12-20T09:45:48;6.80;99.90
38090;DHT22;23904;52.322;10.232;2023-12-20T09:48:17;6.80;99.90
38090;DHT22;23904;52.322;10.232;2023-12-20T09:50:44;6.80;99.90
38090;DHT22;23904;52.322;10.232;2023-12-20T09:53:14;6.80;99.90
38090;DHT22;23904;52.322;10.232;2023-12-20T09:55:41;6.80;99.90
38090;DHT22;23904;52.322;10.232;2023-12-20T09:58:07;6.70;99.90
38090;DHT22;23904;52.322;10.232;2023-12-20T10:00:35;6.80;99.90
38090;DHT22;23904;52.322;10.232;2023-12-20T10:03:00;6.80;99.90
38090;DHT22;23904;52.322;10.232;2023-12-20T10:05:31;6.80;99.90
38090;DHT22;23904;52.322;10.232;2023-12-20T10:07:58;6.90;99.90
38090;DHT22;23904;52.322;10.232;2023-12-20T10:10:24;6.90;99.90
38090;DHT22;23904;52.322;10.232;2023-12-20T10:13:04;6.90;99.90
38090;DHT22;23904;52.322;10.232;2023-12-20T10:15:34;6.90;99.90
38090;DHT22;23904;52.322;10.232;2023-12-20T10:18:03;6.90;99.90
38090;DHT22;23904;52.322;10.232;2023-12-20T10:20:30;6.90;99.90
38090;DHT22;23904;52.322;10.232;2023-12-20T10:22:59;6.90;99.90
38090;DHT22;23904;52.322;10.232;2023-12-20T10:25:26;7.00;99.90
38090;DHT22;23904;52.322;10.232;2023-12-20T10:28:12;7.00;99.90
38090;DHT22;23904;52.322;10.232;2023-12-20T10:30:45;7.00;99.90
38090;DHT22;23904;52.322;10.232;2023-12-20T10:33:10;7.10;99.90
38090;DHT22;23904;52.322;10.232;2023-12-20T10:35:38;7.20;99.90
38090;DHT22;23904;52.322;10.232;2023-12-20T10:38:05;7.20;99.90
38090;DHT22;23904;52.322;10.232;2023-12-20T10:40:35;7.20;99.90
38090;DHT22;23904;52.322;10.232;2023-12-20T10:43:04;7.20;99.90
38090;DHT22;23904;52.322;10.232;2023-12-20T10:45:30;7.30;99.90
38090;DHT22;23904;52.322;10.232;2023-12-20T10:47:57;7.30;99.90
38090;DHT22;23904;52.322;10.232;2023-12-20T10:50:26;7.40;99.90
38090;DHT22;23904;52.322;10.232;2023-12-20T10:52:54;7.40;99.90
38090;DHT22;23904;52.322;10.232;2023-12-20T10:55:22;7.30;99.90
38090;DHT22;23904;52.322;10.232;2023-12-20T10:57:51;7.30;99.90
38090;DHT22;23904;52.322;10.232;2023-12-20T11:00:18;7.30;99.90
38090;DHT22;23904;52.322;10.232;2023-12-20T11:02:45;7.30;99.90
38090;DHT22;23904;52.322;10.232;2023-12-20T11:05:28;7.30;99.90
38090;DHT22;23904;52.322;10.232;2023-12-20T11:11:05;7.30;99.90
38090;DHT22;23904;52.322;10.232;2023-12-20T11:13:59;7.30;99.90
38090;DHT22;23904;52.322;10.232;2023-12-20T11:16:27;7.40;99.90
38090;DHT22;23904;52.322;10.232;2023-12-20T11:18:53;7.40;99.90
38090;DHT22;23904;52.322;10.232;2023-12-20T11:21:19;7.40;99.90
38090;DHT22;23904;52.322;10.232;2023-12-20T11:23:45;7.40;99.90
38090;DHT22;23904;52.322;10.232;2023-12-20T11:26:11;7.40;99.90
38090;DHT22;23904;52.322;10.232;2023-12-20T11:28:36;7.50;99.90
38090;DHT22;23904;52.322;10.232;2023-12-20T11:31:02;7.40;99.90
38090;DHT22;23904;52.322;10.232;2023-12-20T11:33:36;7.40;99.90
38090;DHT22;23904;52.322;10.232;2023-12-20T11:36:03;7.30;99.90
38090;DHT22;23904;52.322;10.232;2023-12-20T11:38:38;7.30;99.90
38090;DHT22;23904;52.322;10.232;2023-12-20T11:41:06;7.30;99.90
38090;DHT22;23904;52.322;10.232;2023-12-20T11:43:39;7.30;99.90
38090;DHT22;23904;52.322;10.232;2023-12-20T11:46:08;7.20;99.90
38090;DHT22;23904;52.322;10.232;2023-12-20T11:48:36;7.20;99.90
38090;DHT22;23904;52.322;10.232;2023-12-20T11:51:09;7.10;99.90
38090;DHT22;23904;52.322;10.232;2023-12-20T11:53:40;7.10;99.90
38090;DHT22;23904;52.322;10.232;2023-12-20T11:56:06;7.00;99.90
38090;DHT22;23904;52.322;10.232;2023-12-20T11:58:33;6.90;99.90
38090;DHT22;23904;52.322;10.232;2023-12-20T12:00:59;6.80;99.90
38090;DHT22;23904;52.322;10.232;2023-12-20T12:03:25;6.80;99.90
38090;DHT22;23904;52.322;10.232;2023-12-20T12:05:51;6.80;99.90
38090;DHT22;23904;52.322;10.232;2023-12-20T12:08:19;6.70;99.90
38090;DHT22;23904;52.322;10.232;2023-12-20T12:10:45;6.70;99.90
38090;DHT22;23904;52.322;10.232;2023-12-20T12:13:11;6.60;99.90
38090;DHT22;23904;52.322;10.232;2023-12-20T12:15:37;6.60;99.90
38090;DHT22;23904;52.322;10.232;2023-12-20T12:18:03;6.50;99.90
38090;DHT22;23904;52.322;10.232;2023-12-20T12:20:30;6.40;99.90
38090;DHT22;23904;52.322;10.232;2023-12-20T12:23:02;6.30;99.90
38090;DHT22;23904;52.322;10.232;2023-12-20T12:25:32;6.20;99.90
38090;DHT22;23904;52.322;10.232;2023-12-20T12:27:59;6.20;99.90
38090;DHT22;23904;52.322;10.232;2023-12-20T12:30:25;6.20;99.90
38090;DHT22;23904;52.322;10.232;2023-12-20T12:32:52;6.20;99.90
38090;DHT22;23904;52.322;10.232;2023-12-20T12:35:19;6.10;99.90
38090;DHT22;23904;52.322;10.232;2023-12-20T12:37:46;6.10;99.90
38090;DHT22;23904;52.322;10.232;2023-12-20T12:40:13;6.10;99.90
38090;DHT22;23904;52.322;10.232;2023-12-20T12:42:40;6.10;99.90
38090;DHT22;23904;52.322;10.232;2023-12-20T12:45:07;6.10;99.90
38090;DHT22;23904;52.322;10.232;2023-12-20T12:47:34;6.10;99.90
38090;DHT22;23904;52.322;10.232;2023-12-20T12:50:00;6.00;99.90
38090;DHT22;23904;52.322;10.232;2023-12-20T12:52:25;6.00;99.90
38090;DHT22;23904;52.322;10.232;2023-12-20T12:54:52;6.10;99.90
38090;DHT22;23904;52.322;10.232;2023-12-20T12:57:18;6.10;99.90
38090;DHT22;23904;52.322;10.232;2023-12-20T12:59:45;6.10;99.90
38090;DHT22;23904;52.322;10.232;2023-12-20T13:02:14;6.00;99.90
38090;DHT22;23904;52.322;10.232;2023-12-20T13:04:40;6.00;99.90
38090;DHT22;23904;52.322;10.232;2023-12-20T13:07:07;6.00;99.90
38090;DHT22;23904;52.322;10.232;2023-12-20T13:09:36;6.00;99.90
38090;DHT22;23904;52.322;10.232;2023-12-20T13:12:01;6.20;99.90
38090;DHT22;23904;52.322;10.232;2023-12-20T13:14:29;6.60;99.90
38090;DHT22;23904;52.322;10.232;2023-12-20T13:16:58;6.60;99.90
38090;DHT22;23904;52.322;10.232;2023-12-20T13:19:23;6.50;99.90
38090;DHT22;23904;52.322;10.232;2023-12-20T13:21:49;6.50;99.90
38090;DHT22;23904;52.322;10.232;2023-12-20T13:24:15;6.40;99.90
38090;DHT22;23904;52.322;10.232;2023-12-20T13:26:40;6.30;99.90
38090;DHT22;23904;52.322;10.232;2023-12-20T13:29:06;6.10;99.90
38090;DHT22;23904;52.322;10.232;2023-12-20T13:31:31;5.90;99.90
38090;DHT22;23904;52.322;10.232;2023-12-20T13:33:57;5.80;99.90
38090;DHT22;23904;52.322;10.232;2023-12-20T13:36:22;5.80;99.90
38090;DHT22;23904;52.322;10.232;2023-12-20T13:38:49;5.80;99.90
38090;DHT22;23904;52.322;10.232;2023-12-20T13:41:16;5.80;99.90
38090;DHT22;23904;52.322;10.232;2023-12-20T13:43:42;5.80;99.90
38090;DHT22;23904;52.322;10.232;2023-12-20T13:46:08;5.80;99.90
38090;DHT22;23904;52.322;10.232;2023-12-20T13:48:34;5.80;99.90
38090;DHT22;23904;52.322;10.232;2023-12-20T13:51:00;5.80;99.90
38090;DHT22;23904;52.322;10.232;2023-12-20T13:53:25;5.80;99.90
38090;DHT22;23904;52.322;10.232;2023-12-20T13:55:51;5.80;99.90
38090;DHT22;23904;52.322;10.232;2023-12-20T13:58:17;5.90;99.90
38090;DHT22;23904;52.322;10.232;2023-12-20T14:00:42;5.90;99.90
38090;DHT22;23904;52.322;10.232;2023-12-20T14:03:08;5.90;99.90
38090;DHT22;23904;52.322;10.232;2023-12-20T14:05:35;5.90;99.90
38090;DHT22;23904;52.322;10.232;2023-12-20T14:08:01;6.00;99.90
38090;DHT22;23904;52.322;10.232;2023-12-20T14:10:26;6.00;99.90
38090;DHT22;23904;52.322;10.232;2023-12-20T14:12:53;6.00;99.90
38090;DHT22;23904;52.322;10.232;2023-12-20T14:15:19;6.00;99.90
38090;DHT22;23904;52.322;10.232;2023-12-20T14:17:44;6.00;99.90
38090;DHT22;23904;52.322;10.232;2023-12-20T14:20:10;6.00;99.90
38090;DHT22;23904;52.322;10.232;2023-12-20T14:22:40;6.00;99.90
38090;DHT22;23904;52.322;10.232;2023-12-20T14:25:13;6.10;99.90
38090;DHT22;23904;52.322;10.232;2023-12-20T14:27:42;6.10;99.90
38090;DHT22;23904;52.322;10.232;2023-12-20T14:30:09;6.10;99.90
38090;DHT22;23904;52.322;10.232;2023-12-20T14:32:36;6.10;99.90
38090;DHT22;23904;52.322;10.232;2023-12-20T14:35:05;6.20;99.90
38090;DHT22;23904;52.322;10.232;2023-12-20T14:37:31;6.20;99.90
38090;DHT22;23904;52.322;10.232;2023-12-20T14:39:56;6.20;99.90
38090;DHT22;23904;52.322;10.232;2023-12-20T14:42:22;6.20;99.90
38090;DHT22;23904;52.322;10.232;2023-12-20T14:44:47;6.20;99.90
38090;DHT22;23904;52.322;10.232;2023-12-20T14:47:13;6.20;99.90
38090;DHT22;23904;52.322;10.232;2023-12-20T14:49:40;6.20;99.90
38090;DHT22;23904;52.322;10.232;2023-12-20T14:52:06;6.20;99.90
38090;DHT22;23904;52.322;10.232;2023-12-20T14:54:33;6.20;99.90
38090;DHT22;23904;52.322;10.232;2023-12-20T14:56:59;6.20;99.90
38090;DHT22;23904;52.322;10.232;2023-12-20T14:59:25;6.20;99.90
38090;DHT22;23904;52.322;10.232;2023-12-20T15:01:50;6.20;99.90
38090;DHT22;23904;52.322;10.232;2023-12-20T15:04:16;6.20;99.90
38090;DHT22;23904;52.322;10.232;2023-12-20T15:06:42;6.30;99.90
38090;DHT22;23904;52.322;10.232;2023-12-20T15:09:08;6.20;99.90
38090;DHT22;23904;52.322;10.232;2023-12-20T15:11:34;6.20;99.90
38090;DHT22;23904;52.322;10.232;2023-12-20T15:14:01;6.30;99.90
38090;DHT22;23904;52.322;10.232;2023-12-20T15:16:26;6.30;99.90
38090;DHT22;23904;52.322;10.232;2023-12-20T15:18:53;6.30;99.90
38090;DHT22;23904;52.322;10.232;2023-12-20T15:21:21;6.40;99.90
38090;DHT22;23904;52.322;10.232;2023-12-20T15:23:56;6.40;99.90
38090;DHT22;23904;52.322;10.232;2023-12-20T15:26:34;6.30;99.90
38090;DHT22;23904;52.322;10.232;2023-12-20T15:29:03;6.30;99.90